createdAt,value
2018-06-09T00:00:11.899Z,20.00
2018-06-09T00:02:40.381Z,19.90
2018-06-09T00:05:10.967Z,19.90
2018-06-09T00:07:40.958Z,19.90
2018-06-09T00:10:10.676Z,19.90
2018-06-09T00:12:40.008Z,19.90
2018-06-09T00:15:08.494Z,19.80
2018-06-09T00:17:38.597Z,19.80
2018-06-09T00:20:08.231Z,19.80
2018-06-09T00:22:38.075Z,19.80
2018-06-09T00:25:07.184Z,19.80
2018-06-09T00:27:37.555Z,19.80
2018-06-09T00:30:06.280Z,19.70
2018-06-09T00:32:36.806Z,19.70
2018-06-09T00:35:11.425Z,19.70
2018-06-09T00:40:13.111Z,19.60
2018-06-09T00:42:42.220Z,19.60
2018-06-09T00:45:11.807Z,19.60
2018-06-09T00:47:40.605Z,19.50
2018-06-09T00:50:16.087Z,19.50
2018-06-09T00:52:45.941Z,19.50
2018-06-09T00:55:16.331Z,19.50
2018-06-09T00:57:46.459Z,19.50
2018-06-09T01:00:16.107Z,19.50
2018-06-09T01:02:51.001Z,19.50
2018-06-09T01:05:25.139Z,19.50
2018-06-09T01:07:59.848Z,19.50
2018-06-09T01:10:29.923Z,19.50
2018-06-09T01:12:59.634Z,19.50
2018-06-09T01:15:28.611Z,19.50
2018-06-09T01:18:01.114Z,19.40
2018-06-09T01:20:31.862Z,19.40
2018-06-09T01:23:02.654Z,19.40
2018-06-09T01:25:32.840Z,19.40
2018-06-09T01:28:03.082Z,19.50
2018-06-09T01:30:35.512Z,19.40
2018-06-09T01:33:05.053Z,19.40
2018-06-09T01:35:39.548Z,19.40
2018-06-09T01:38:09.588Z,19.40
2018-06-09T01:40:42.135Z,19.40
2018-06-09T01:43:12.284Z,19.50
2018-06-09T01:45:44.164Z,19.50
2018-06-09T01:48:14.947Z,19.50
2018-06-09T01:50:46.777Z,19.50
2018-06-09T01:53:19.588Z,19.40
2018-06-09T01:55:49.939Z,19.40
2018-06-09T01:58:22.208Z,19.40
2018-06-09T02:00:55.730Z,19.40
2018-06-09T02:03:29.076Z,19.30
2018-06-09T02:05:59.377Z,19.30
2018-06-09T02:08:29.605Z,19.30
2018-06-09T02:11:03.189Z,19.30
2018-06-09T02:13:33.213Z,19.30
2018-06-09T02:16:05.903Z,19.30
2018-06-09T02:18:35.859Z,19.30
2018-06-09T02:21:06.773Z,19.30
2018-06-09T02:23:37.280Z,19.30
2018-06-09T02:26:13.456Z,19.30
2018-06-09T02:28:43.131Z,19.30
2018-06-09T02:31:15.068Z,19.20
2018-06-09T02:33:45.908Z,19.20
2018-06-09T02:36:17.744Z,19.20
2018-06-09T02:38:47.799Z,19.30
2018-06-09T02:41:17.722Z,19.30
2018-06-09T02:43:49.884Z,19.20
2018-06-09T02:46:21.473Z,19.20
2018-06-09T02:48:52.214Z,19.20
2018-06-09T02:51:23.363Z,19.20
2018-06-09T02:53:56.363Z,19.20
2018-06-09T02:56:27.444Z,19.20
2018-06-09T02:58:58.830Z,19.20
2018-06-09T03:01:30.575Z,19.20
2018-06-09T03:04:00.153Z,19.20
2018-06-09T03:06:32.408Z,19.20
2018-06-09T03:09:02.959Z,19.20
2018-06-09T03:11:35.464Z,19.20
2018-06-09T03:14:06.121Z,19.10
2018-06-09T03:16:38.508Z,19.10
2018-06-09T03:19:12.960Z,19.10
2018-06-09T03:21:44.750Z,19.10
2018-06-09T03:24:17.476Z,19.10
2018-06-09T03:26:52.969Z,19.10
2018-06-09T03:29:22.616Z,19.10
2018-06-09T03:31:53.864Z,19.10
2018-06-09T03:34:23.886Z,19.10
2018-06-09T03:36:53.638Z,19.00
2018-06-09T03:39:26.607Z,19.00
2018-06-09T03:41:55.628Z,19.10
2018-06-09T03:44:30.920Z,19.00
2018-06-09T03:47:02.984Z,19.00
2018-06-09T03:49:36.844Z,19.00
2018-06-09T03:52:10.487Z,19.00
2018-06-09T03:54:41.839Z,19.00
2018-06-09T03:57:12.150Z,19.00
2018-06-09T03:59:43.855Z,19.00
2018-06-09T04:02:17.286Z,19.00
2018-06-09T04:04:45.914Z,19.00
2018-06-09T04:07:14.456Z,19.00
2018-06-09T04:09:43.054Z,19.00
2018-06-09T04:12:11.573Z,19.10
2018-06-09T04:14:40.032Z,19.10
2018-06-09T04:17:08.531Z,19.20
2018-06-09T04:19:37.052Z,19.20
2018-06-09T04:22:05.540Z,19.20
2018-06-09T04:24:34.008Z,19.20
2018-06-09T04:29:31.333Z,19.30
2018-06-09T04:31:59.838Z,19.40
2018-06-09T04:34:28.435Z,19.40
2018-06-09T04:36:56.943Z,19.50
2018-06-09T04:39:25.443Z,19.50
2018-06-09T04:41:53.916Z,19.60
2018-06-09T04:44:22.497Z,19.60
2018-06-09T04:46:51.038Z,19.70
2018-06-09T04:49:19.544Z,19.70
2018-06-09T04:51:48.095Z,19.80
2018-06-09T04:54:16.611Z,19.80
2018-06-09T04:56:45.142Z,19.90
2018-06-09T04:59:13.851Z,19.90
2018-06-09T05:01:42.399Z,20.00
2018-06-09T05:04:11.968Z,20.10
2018-06-09T05:06:40.480Z,20.10
2018-06-09T05:09:09.160Z,20.10
2018-06-09T05:11:37.692Z,20.10
2018-06-09T05:14:06.232Z,20.20
2018-06-09T05:16:34.780Z,20.20
2018-06-09T05:19:04.340Z,20.30
2018-06-09T05:21:33.822Z,20.40
2018-06-09T05:24:02.355Z,20.40
2018-06-09T05:26:30.851Z,20.50
2018-06-09T05:28:59.779Z,20.60
2018-06-09T05:31:28.276Z,20.70
2018-06-09T05:33:56.750Z,20.80
2018-06-09T05:36:25.291Z,20.90
2018-06-09T05:38:53.852Z,20.90
2018-06-09T05:41:22.386Z,21.10
2018-06-09T05:43:51.088Z,21.30
2018-06-09T05:51:27.537Z,21.50
2018-06-09T05:54:00.037Z,21.70
2018-06-09T05:56:30.877Z,21.70
2018-06-09T05:58:59.533Z,21.70
2018-06-09T06:01:29.024Z,21.70
2018-06-09T06:03:58.946Z,21.60
2018-06-09T06:06:27.464Z,21.70
2018-06-09T06:08:56.139Z,21.70
2018-06-09T06:11:24.722Z,21.70
2018-06-09T06:13:53.860Z,21.90
2018-06-09T06:16:22.624Z,22.00
2018-06-09T06:18:51.249Z,22.00
2018-06-09T06:21:19.774Z,22.10
2018-06-09T06:23:48.301Z,22.20
2018-06-09T06:26:16.906Z,22.20
2018-06-09T06:28:46.209Z,22.20
2018-06-09T06:31:15.075Z,22.30
2018-06-09T06:33:43.686Z,22.50
2018-06-09T06:36:13.172Z,22.60
2018-06-09T06:38:41.822Z,22.70
2018-06-09T06:41:14.289Z,22.80
2018-06-09T06:43:43.065Z,22.80
2018-06-09T06:46:12.142Z,22.90
2018-06-09T06:48:40.838Z,23.00
2018-06-09T06:51:09.451Z,23.10
2018-06-09T06:53:38.890Z,23.10
2018-06-09T06:56:07.473Z,23.10
2018-06-09T06:58:36.124Z,23.00
2018-06-09T07:01:04.899Z,23.00
2018-06-09T07:03:34.120Z,23.00
2018-06-09T07:06:03.719Z,23.10
2018-06-09T07:08:32.363Z,23.20
2018-06-09T07:11:00.892Z,23.30
2018-06-09T07:13:30.357Z,23.40
2018-06-09T07:15:58.962Z,23.40
2018-06-09T07:18:27.690Z,23.50
2018-06-09T07:20:57.164Z,23.60
2018-06-09T07:23:26.757Z,23.70
2018-06-09T07:25:55.372Z,23.90
2018-06-09T07:28:23.905Z,23.90
2018-06-09T07:30:52.471Z,24.00
2018-06-09T07:33:20.946Z,24.10
2018-06-09T07:35:49.552Z,24.20
2018-06-09T07:38:18.108Z,24.20
2018-06-09T07:40:48.053Z,24.30
2018-06-09T07:43:17.575Z,24.40
2018-06-09T07:45:46.411Z,24.50
2018-06-09T07:48:14.956Z,24.50
2018-06-09T07:50:43.807Z,24.60
2018-06-09T07:53:12.336Z,24.60
2018-06-09T07:55:40.889Z,24.60
2018-06-09T07:58:09.359Z,24.60
2018-06-09T08:00:37.912Z,24.70
2018-06-09T08:03:06.452Z,24.80
2018-06-09T08:05:36.040Z,24.90
2018-06-09T08:11:23.439Z,25.00
2018-06-09T08:16:20.616Z,25.20
2018-06-09T08:18:49.187Z,25.30
2018-06-09T08:21:17.796Z,25.50
2018-06-09T08:23:46.813Z,25.50
2018-06-09T08:26:15.337Z,25.50
2018-06-09T08:28:43.849Z,25.70
2018-06-09T08:31:13.398Z,25.70
2018-06-09T08:33:42.560Z,25.70
2018-06-09T08:36:11.644Z,25.80
2018-06-09T08:38:40.101Z,25.90
2018-06-09T08:41:08.759Z,26.10
2018-06-09T08:43:37.381Z,26.20
2018-06-09T08:46:06.728Z,26.30
2018-06-09T08:48:35.576Z,26.30
2018-06-09T08:51:04.833Z,26.30
2018-06-09T08:53:34.410Z,26.40
2018-06-09T08:56:04.208Z,26.60
2018-06-09T08:58:36.505Z,26.60
2018-06-09T09:01:06.858Z,26.60
2018-06-09T09:03:35.731Z,26.60
2018-06-09T09:06:04.710Z,26.70
2018-06-09T09:08:33.939Z,26.80
2018-06-09T09:11:02.675Z,26.90
2018-06-09T09:13:31.377Z,27.00
2018-06-09T09:16:00.018Z,27.10
2018-06-09T09:18:28.773Z,27.30
2018-06-09T09:20:57.627Z,27.40
2018-06-09T09:23:26.275Z,27.40
2018-06-09T09:25:54.932Z,27.50
2018-06-09T09:28:23.530Z,27.50
2018-06-09T09:30:52.060Z,27.60
2018-06-09T09:33:21.095Z,27.80
2018-06-09T09:35:49.632Z,28.00
2018-06-09T09:40:46.465Z,28.20
2018-06-09T09:43:15.197Z,28.20
2018-06-09T09:45:43.748Z,28.30
2018-06-09T09:48:12.377Z,28.30
2018-06-09T09:50:40.942Z,28.40
2018-06-09T09:53:09.509Z,28.60
2018-06-09T09:55:38.253Z,28.50
2018-06-09T09:58:07.057Z,28.50
2018-06-09T10:00:39.961Z,28.60
2018-06-09T10:03:08.825Z,28.70
2018-06-09T10:05:37.567Z,28.90
2018-06-09T10:08:06.553Z,29.10
2018-06-09T10:10:35.256Z,29.10
2018-06-09T10:13:04.749Z,29.00
2018-06-09T10:15:39.462Z,29.20
2018-06-09T10:18:16.436Z,29.40
2018-06-09T10:20:46.056Z,29.60
2018-06-09T10:25:43.995Z,29.70
2018-06-09T10:28:12.613Z,30.00
2018-06-09T10:30:41.590Z,30.10
2018-06-09T10:36:02.868Z,30.20
2018-06-09T10:38:35.770Z,30.30
2018-06-09T10:41:05.257Z,30.40
2018-06-09T10:43:39.785Z,30.30
2018-06-09T10:46:21.483Z,30.30
2018-06-09T10:48:50.697Z,30.50
2018-06-09T10:51:19.519Z,30.50
2018-06-09T10:53:48.105Z,30.40
2018-06-09T10:56:17.161Z,30.40
2018-06-09T10:58:45.738Z,30.50
2018-06-09T11:01:14.360Z,30.60
2018-06-09T11:03:42.917Z,30.40
2018-06-09T11:06:11.887Z,30.40
2018-06-09T11:08:40.592Z,30.60
2018-06-09T11:11:09.143Z,30.80
2018-06-09T11:13:37.679Z,31.00
2018-06-09T11:16:06.221Z,31.10
2018-06-09T11:18:34.793Z,31.30
2018-06-09T11:21:03.291Z,31.50
2018-06-09T11:23:31.816Z,31.70
2018-06-09T11:26:00.300Z,31.60
2018-06-09T11:28:29.254Z,31.40
2018-06-09T11:30:57.719Z,31.40
2018-06-09T11:33:26.560Z,31.60
2018-06-09T11:35:55.091Z,31.90
2018-06-09T11:38:25.037Z,32.20
2018-06-09T12:14:21.059Z,33.50
2018-06-09T12:17:02.630Z,37.40
2018-06-09T12:19:37.532Z,39.00
2018-06-09T12:26:11.097Z,41.00
2018-06-09T12:29:13.575Z,41.60
2018-06-09T12:58:22.534Z,36.00
2018-06-09T13:10:42.044Z,43.80
2018-06-09T13:16:27.034Z,42.00
2018-06-09T13:26:01.365Z,37.00
2018-06-09T13:37:50.344Z,43.10
2018-06-09T15:45:02.525Z,30.20
2018-06-09T15:47:31.199Z,30.00
2018-06-09T15:49:59.797Z,29.90
2018-06-09T15:52:28.292Z,29.80
2018-06-09T15:54:56.759Z,29.70
2018-06-09T15:57:27.478Z,29.50
2018-06-09T15:59:58.069Z,29.10
2018-06-09T16:02:27.191Z,28.80
2018-06-09T16:04:55.705Z,28.60
2018-06-09T16:07:24.946Z,28.40
2018-06-09T16:09:53.917Z,28.10
2018-06-09T16:12:23.470Z,27.80
2018-06-09T16:14:53.674Z,27.70
2018-06-09T16:17:23.870Z,27.40
2018-06-09T16:19:56.247Z,27.20
2018-06-09T16:49:53.678Z,26.40
2018-06-09T16:52:31.152Z,26.40
2018-06-09T16:55:07.497Z,26.50
2018-06-09T16:57:56.593Z,26.50
2018-06-09T17:00:35.563Z,26.50
2018-06-09T17:03:20.105Z,26.60
2018-06-09T17:09:02.922Z,26.60
2018-06-09T17:15:18.447Z,26.70
2018-06-09T17:24:39.359Z,26.90
2018-06-09T17:27:31.398Z,27.00
2018-06-09T17:30:31.218Z,27.20
2018-06-09T17:36:18.552Z,27.50
2018-06-09T17:38:59.607Z,27.60
2018-06-09T17:41:44.028Z,27.70
2018-06-09T17:44:14.672Z,27.70
2018-06-09T17:46:44.906Z,27.70
2018-06-09T17:49:14.103Z,27.60
2018-06-09T17:51:42.705Z,27.40
2018-06-09T17:54:11.697Z,27.00
2018-06-09T17:56:40.509Z,26.80
2018-06-09T17:59:10.614Z,26.50
2018-06-09T18:01:40.188Z,26.30
2018-06-09T18:04:09.275Z,26.20
2018-06-09T18:06:39.279Z,26.10
2018-06-09T18:09:10.340Z,26.10
2018-06-09T18:11:39.286Z,26.00
2018-06-09T18:14:10.141Z,25.80
2018-06-09T18:16:41.417Z,25.50
2018-06-09T18:19:10.383Z,25.00
2018-06-09T18:21:39.453Z,24.60
2018-06-09T18:24:08.644Z,24.30
2018-06-09T18:26:37.549Z,24.00
2018-06-09T18:29:06.296Z,23.60
2018-06-09T18:31:36.506Z,23.30
2018-06-09T18:34:18.274Z,23.10
2018-06-09T18:36:48.864Z,22.80
2018-06-09T18:39:19.664Z,22.60
2018-06-09T18:41:51.405Z,22.40
2018-06-09T18:44:21.526Z,22.20
2018-06-09T18:46:52.938Z,22.00
2018-06-09T18:49:22.963Z,21.90
2018-06-09T18:51:51.650Z,21.80
2018-06-09T18:54:20.398Z,21.70
2018-06-09T18:56:49.161Z,21.60
2018-06-09T18:59:24.977Z,21.50
2018-06-09T19:02:04.021Z,21.40
2018-06-09T19:04:36.764Z,21.30
2018-06-09T19:07:07.541Z,21.30
2018-06-09T19:09:36.825Z,21.20
2018-06-09T19:12:06.548Z,21.20
2018-06-09T19:14:35.726Z,21.20
2018-06-09T19:17:05.100Z,21.10
2018-06-09T19:19:34.380Z,21.00
2018-06-09T19:22:03.924Z,21.00
2018-06-09T19:24:32.891Z,21.00
2018-06-09T19:27:02.740Z,20.90
2018-06-09T19:29:43.784Z,20.90
2018-06-09T19:32:20.135Z,20.80
2018-06-09T19:34:56.480Z,20.70
2018-06-09T19:37:27.031Z,20.70
2018-06-09T19:40:12.059Z,20.70
2018-06-09T19:43:03.996Z,20.70
2018-06-09T19:47:24.682Z,20.70
2018-06-09T19:55:42.216Z,20.60
2018-06-09T19:58:13.749Z,20.60
2018-06-09T20:00:42.400Z,20.60
2018-06-09T20:05:44.526Z,20.60
2018-06-09T20:08:15.670Z,20.50
2018-06-09T20:10:44.539Z,20.50
2018-06-09T20:13:14.282Z,20.50
2018-06-09T20:15:47.387Z,20.50
2018-06-09T20:18:17.003Z,20.50
2018-06-09T20:20:45.749Z,20.50
2018-06-09T20:23:15.767Z,20.50
2018-06-09T20:25:45.299Z,20.50
2018-06-09T20:28:14.146Z,20.50
2018-06-09T20:30:46.898Z,20.50
2018-06-09T20:33:15.790Z,20.50
2018-06-09T20:35:44.345Z,20.50
2018-06-09T20:38:13.499Z,20.50
2018-06-09T20:40:42.565Z,20.50
2018-06-09T20:43:12.185Z,20.50
2018-06-09T20:45:43.683Z,20.50
2018-06-09T20:48:12.432Z,20.50
2018-06-09T20:50:41.045Z,20.50
2018-06-09T20:53:09.640Z,20.50
2018-06-09T20:55:38.424Z,20.50
2018-06-09T21:00:37.459Z,20.50
2018-06-09T21:03:08.882Z,20.50
2018-06-09T21:05:39.040Z,20.50
2018-06-09T21:08:08.304Z,20.50
2018-06-09T21:10:38.036Z,20.50
2018-06-09T21:13:09.306Z,20.50
2018-06-09T21:15:38.068Z,20.50
2018-06-09T21:18:06.564Z,20.50
2018-06-09T21:20:35.068Z,20.40
2018-06-09T21:23:03.895Z,20.40
2018-06-09T21:25:33.612Z,20.40
2018-06-09T21:30:15.825Z,20.40
2018-06-09T21:32:47.582Z,20.30
2018-06-09T21:35:33.358Z,20.20
2018-06-09T21:38:18.125Z,20.20
2018-06-09T21:40:47.953Z,20.20
2018-06-09T21:43:22.348Z,20.10
2018-06-09T21:45:52.684Z,20.10
2018-06-09T21:48:24.677Z,20.10
2018-06-09T21:51:31.797Z,20.10
2018-06-09T21:54:04.570Z,20.10
2018-06-09T21:57:09.942Z,20.00
2018-06-09T22:00:06.789Z,20.00
2018-06-09T22:02:48.224Z,20.00
2018-06-09T22:11:03.196Z,20.00
2018-06-09T22:13:32.658Z,20.00
2018-06-09T22:16:01.690Z,20.00
2018-06-09T22:18:31.131Z,20.00
2018-06-09T22:21:01.001Z,20.00
2018-06-09T22:23:30.358Z,20.00
2018-06-09T22:26:00.290Z,20.00
2018-06-09T22:28:31.448Z,19.90
2018-06-09T22:31:03.552Z,19.90
2018-06-09T22:36:09.984Z,19.90
2018-06-09T22:38:38.549Z,19.90
2018-06-09T22:41:09.009Z,19.90
2018-06-09T22:43:41.167Z,19.90
2018-06-09T22:46:10.611Z,19.80
2018-06-09T22:48:39.906Z,19.80
2018-06-09T22:51:13.912Z,19.80
2018-06-09T22:53:44.840Z,19.80
2018-06-09T22:56:16.923Z,19.80
2018-06-09T22:58:48.023Z,19.80
2018-06-09T23:01:17.053Z,19.80
2018-06-09T23:03:47.727Z,19.80
2018-06-09T23:06:17.067Z,19.80
2018-06-09T23:08:47.046Z,19.80
2018-06-09T23:11:17.671Z,19.90
2018-06-09T23:13:46.218Z,19.90
2018-06-09T23:16:14.762Z,20.00
2018-06-09T23:18:43.363Z,20.00
2018-06-09T23:21:12.491Z,20.00
2018-06-09T23:23:42.416Z,20.00
2018-06-09T23:26:11.073Z,20.00
2018-06-09T23:28:47.266Z,20.00
2018-06-09T23:31:18.995Z,20.00
2018-06-09T23:33:47.906Z,20.00
2018-06-09T23:36:16.612Z,20.00
2018-06-09T23:38:58.766Z,20.00
2018-06-09T23:44:30.387Z,19.90
2018-06-09T23:46:58.978Z,19.90
2018-06-09T23:49:27.624Z,19.90
2018-06-09T23:51:58.725Z,19.80
2018-06-09T23:54:32.618Z,19.80
2018-06-09T23:57:01.261Z,19.80
2018-06-09T23:59:32.429Z,19.70
